KEKO/EKO METAR and TAF weather

Enter ICAO airport designator
Station Type Date Time Source
KEKO METAR 2020/07/12 04:56 UTC NOAA

KEKO 120456Z AUTO 00000KT 10SM CLR 25/M02 A3014 RMK AO2 SLP141 T02501022


Station Type Date Time Source
KEKO Decoded METAR 2020/07/12 04:56 UTC NOAA

ELKO REGIONAL AIRPORT, NV, United States (KEKO) 40-50N 115-47W 1547M
Jul 12, 2020 - 12:56 AM EDT / 2020.07.12 0456 UTC
Wind: Calm:0
Visibility: 10 mile(s):0
Sky conditions: clear
Temperature: 77.0 F (25.0 C)
Dew Point: 28.0 F (-2.2 C)
Relative Humidity: 16%
Pressure (altimeter): 30.14 in. Hg (1020 hPa)
ob: KEKO 120456Z AUTO 00000KT 10SM CLR 25/M02 A3014 RMK AO2 SLP141 T02501022
cycle: 5

Station Type Date Time Source
KEKO TAF 2020/07/12 06:22 UTC NOAA

TAF KEKO 120520Z 1206/1306 VRB06KT P6SM FEW120
FM121900 25010G20KT P6SM SKC
FM122200 26015G25KT P6SM SKC
FM130200 27015KT P6SM SKC
FM130400 VRB05KT P6SM SKC

Example: see airport list